createdAt,value
2022-12-08T00:00:06.981Z,2.57
2022-12-08T00:02:38.580Z,2.57
2022-12-08T00:05:24.088Z,2.56
2022-12-08T00:08:09.009Z,2.59
2022-12-08T00:10:50.871Z,2.58
2022-12-08T00:13:17.435Z,2.59
2022-12-08T00:15:43.916Z,2.59
2022-12-08T00:18:10.376Z,2.60
2022-12-08T00:20:36.797Z,2.61
2022-12-08T00:23:04.483Z,2.61
2022-12-08T00:25:31.874Z,2.63
2022-12-08T00:27:58.303Z,2.63
2022-12-08T00:30:24.747Z,2.65
2022-12-08T00:32:51.408Z,2.67
2022-12-08T00:35:17.915Z,2.67
2022-12-08T00:37:44.453Z,2.66
2022-12-08T00:40:11.095Z,2.67
2022-12-08T00:42:37.523Z,2.67
2022-12-08T00:45:04.461Z,2.66
2022-12-08T00:47:30.964Z,2.66
2022-12-08T00:49:57.427Z,2.64
2022-12-08T00:52:23.834Z,2.63
2022-12-08T00:54:50.305Z,2.62
2022-12-08T00:57:16.776Z,2.63
2022-12-08T00:59:43.280Z,2.62
2022-12-08T01:02:09.764Z,2.60
2022-12-08T01:04:36.271Z,2.60
2022-12-08T01:07:02.727Z,2.60
2022-12-08T01:09:29.341Z,2.56
2022-12-08T01:11:55.961Z,2.57
2022-12-08T01:14:22.480Z,2.58
2022-12-08T01:16:49.105Z,2.59
2022-12-08T01:19:16.760Z,2.59
2022-12-08T01:21:44.551Z,2.59
2022-12-08T01:24:16.639Z,2.60
2022-12-08T01:26:43.355Z,2.61
2022-12-08T01:29:10.400Z,2.61
2022-12-08T01:31:37.471Z,2.62
2022-12-08T01:34:04.376Z,2.63
2022-12-08T01:36:32.757Z,2.65
2022-12-08T01:39:01.337Z,2.66
2022-12-08T01:41:31.177Z,2.65
2022-12-08T01:44:24.685Z,2.66
2022-12-08T01:46:53.444Z,2.66
2022-12-08T01:49:30.363Z,2.65
2022-12-08T01:52:22.823Z,2.65
2022-12-08T01:55:03.396Z,2.65
2022-12-08T01:57:35.059Z,2.65
2022-12-08T02:00:06.941Z,2.65
2022-12-08T02:02:48.042Z,2.64
2022-12-08T02:05:16.322Z,2.63
2022-12-08T02:07:44.170Z,2.64
2022-12-08T02:10:14.525Z,2.64
2022-12-08T02:12:41.034Z,2.66
2022-12-08T02:15:08.044Z,2.67
2022-12-08T02:17:53.399Z,2.68
2022-12-08T02:20:34.428Z,2.67
2022-12-08T02:23:11.158Z,2.65
2022-12-08T02:25:40.561Z,2.65
2022-12-08T02:28:28.867Z,2.66
2022-12-08T02:31:01.488Z,2.66
2022-12-08T02:33:47.113Z,2.66
2022-12-08T02:36:35.766Z,2.64
2022-12-08T02:39:23.304Z,2.65
2022-12-08T02:42:02.090Z,2.67
2022-12-08T02:44:35.519Z,2.68
2022-12-08T02:47:08.332Z,2.69
2022-12-08T02:49:35.943Z,2.68
2022-12-08T02:52:29.242Z,2.68
2022-12-08T02:55:01.628Z,2.71
2022-12-08T02:57:52.894Z,2.71
2022-12-08T03:00:22.638Z,2.71
2022-12-08T03:03:13.593Z,2.72
2022-12-08T03:06:17.136Z,2.72
2022-12-08T03:09:03.817Z,2.71
2022-12-08T03:11:38.798Z,2.70
2022-12-08T03:14:07.481Z,2.71
2022-12-08T03:16:38.061Z,2.71
2022-12-08T03:19:17.438Z,2.72
2022-12-08T03:21:46.921Z,2.73
2022-12-08T03:24:15.199Z,2.73
2022-12-08T03:26:57.297Z,2.73
2022-12-08T03:29:24.467Z,2.74
2022-12-08T03:31:56.237Z,2.75
2022-12-08T03:34:25.386Z,2.78
2022-12-08T03:36:51.854Z,2.77
2022-12-08T03:39:18.511Z,2.77
2022-12-08T03:41:47.024Z,2.76
2022-12-08T03:44:13.503Z,2.74
2022-12-08T03:46:39.896Z,2.74
2022-12-08T03:49:06.430Z,2.73
2022-12-08T03:51:32.860Z,2.72
2022-12-08T03:53:59.297Z,2.74
2022-12-08T03:56:32.381Z,2.73
2022-12-08T03:58:59.132Z,2.69
2022-12-08T04:01:26.047Z,2.68
2022-12-08T04:03:53.356Z,2.65
2022-12-08T04:06:20.650Z,2.66
2022-12-08T04:08:47.472Z,2.63
2022-12-08T04:11:13.945Z,2.65
2022-12-08T04:13:41.498Z,2.65
2022-12-08T04:16:13.535Z,2.64
2022-12-08T04:18:40.055Z,2.66
2022-12-08T04:21:06.481Z,2.66
2022-12-08T04:23:32.883Z,2.64
2022-12-08T04:25:59.354Z,2.67
2022-12-08T04:28:25.762Z,2.68
2022-12-08T04:30:52.231Z,2.70
2022-12-08T04:33:18.730Z,2.67
2022-12-08T04:35:45.484Z,2.66
2022-12-08T04:38:11.965Z,2.65
2022-12-08T04:40:38.604Z,2.66
2022-12-08T04:43:05.173Z,2.65
2022-12-08T04:45:32.291Z,2.68
2022-12-08T04:48:00.055Z,2.66
2022-12-08T04:50:27.368Z,2.66
2022-12-08T04:52:53.974Z,2.69
2022-12-08T04:55:20.632Z,2.67
2022-12-08T04:57:47.117Z,2.68
2022-12-08T05:00:14.234Z,2.68
2022-12-08T05:02:40.812Z,2.67
2022-12-08T05:05:07.702Z,2.67
2022-12-08T05:07:34.242Z,2.67
2022-12-08T05:10:00.855Z,2.65
2022-12-08T05:12:27.581Z,2.64
2022-12-08T05:14:54.098Z,2.67
2022-12-08T05:17:20.606Z,2.69
2022-12-08T05:19:47.055Z,2.68
2022-12-08T05:22:13.524Z,2.66
2022-12-08T05:24:45.690Z,2.68
2022-12-08T05:27:13.831Z,2.70
2022-12-08T05:29:40.250Z,2.70
2022-12-08T05:32:06.811Z,2.70
2022-12-08T05:34:33.375Z,2.72
2022-12-08T05:36:59.949Z,2.73
2022-12-08T05:39:26.490Z,2.70
2022-12-08T05:41:52.912Z,2.68
2022-12-08T05:44:19.584Z,2.69
2022-12-08T05:46:46.325Z,2.67
2022-12-08T05:49:12.818Z,2.66
2022-12-08T05:51:39.283Z,2.63
2022-12-08T05:54:05.769Z,2.63
2022-12-08T05:56:32.221Z,2.63
2022-12-08T05:58:58.688Z,2.62
2022-12-08T06:01:28.328Z,2.59
2022-12-08T06:03:55.314Z,2.58
2022-12-08T06:06:21.875Z,2.53
2022-12-08T06:08:49.019Z,2.53
2022-12-08T06:11:34.576Z,2.52
2022-12-08T06:14:01.862Z,2.51
2022-12-08T06:16:28.977Z,2.48
2022-12-08T06:18:56.342Z,2.47
2022-12-08T06:21:22.784Z,2.45
2022-12-08T06:23:51.029Z,2.46
2022-12-08T06:26:18.384Z,2.46
2022-12-08T06:28:44.949Z,2.47
2022-12-08T06:31:15.094Z,2.47
2022-12-08T06:33:42.006Z,2.47
2022-12-08T06:36:08.639Z,2.44
2022-12-08T06:38:38.101Z,2.41
2022-12-08T06:41:06.915Z,2.38
2022-12-08T06:43:33.399Z,2.38
2022-12-08T06:46:01.366Z,2.35
2022-12-08T06:48:27.883Z,2.34
2022-12-08T06:50:54.352Z,2.32
2022-12-08T06:53:20.793Z,2.29
2022-12-08T06:55:59.417Z,2.28
2022-12-08T06:58:26.585Z,2.25
2022-12-08T07:00:53.685Z,2.21
2022-12-08T07:03:20.540Z,2.22
2022-12-08T07:05:47.157Z,2.18
2022-12-08T07:08:13.752Z,2.17
2022-12-08T07:10:40.285Z,2.20
2022-12-08T07:13:06.917Z,2.21
2022-12-08T07:15:33.690Z,2.16
2022-12-08T07:18:00.724Z,2.17
2022-12-08T07:20:28.025Z,2.12
2022-12-08T07:22:57.158Z,2.12
2022-12-08T07:25:23.920Z,2.12
2022-12-08T07:27:53.302Z,2.12
2022-12-08T07:30:20.534Z,2.08
2022-12-08T07:32:47.243Z,2.08
2022-12-08T07:35:13.855Z,2.06
2022-12-08T07:37:40.431Z,2.05
2022-12-08T07:40:08.747Z,2.03
2022-12-08T07:42:35.498Z,2.00
2022-12-08T07:45:02.261Z,1.99
2022-12-08T07:47:28.896Z,1.99
2022-12-08T07:49:55.405Z,1.97
2022-12-08T07:52:21.929Z,1.98
2022-12-08T07:54:48.403Z,1.96
2022-12-08T07:57:15.121Z,1.99
2022-12-08T07:59:41.563Z,1.98
2022-12-08T08:02:24.323Z,1.95
2022-12-08T08:04:52.259Z,1.92
2022-12-08T08:07:18.777Z,1.91
2022-12-08T08:09:45.853Z,1.88
2022-12-08T08:12:38.905Z,1.89
2022-12-08T08:15:00.588Z,1.90
2022-12-08T08:17:28.014Z,1.88
2022-12-08T08:19:54.584Z,1.88
2022-12-08T08:22:21.059Z,1.90
2022-12-08T08:24:47.592Z,1.88
2022-12-08T08:27:14.071Z,1.87
2022-12-08T08:29:40.519Z,1.91
2022-12-08T08:32:07.093Z,1.91
2022-12-08T08:34:33.539Z,1.91
2022-12-08T08:37:00.090Z,1.91
2022-12-08T08:39:26.749Z,1.92
2022-12-08T08:41:53.181Z,1.90
2022-12-08T08:44:19.602Z,1.91
2022-12-08T08:46:46.109Z,1.90
2022-12-08T08:49:13.127Z,1.90
2022-12-08T08:51:39.658Z,1.89
2022-12-08T08:54:06.219Z,1.89
2022-12-08T08:56:32.754Z,1.89
2022-12-08T08:58:59.185Z,1.89
2022-12-08T09:01:28.085Z,1.90
2022-12-08T09:03:58.052Z,1.91
2022-12-08T09:06:25.727Z,1.93
2022-12-08T09:08:52.339Z,1.97
2022-12-08T09:11:18.937Z,1.99
2022-12-08T09:13:49.495Z,2.04
2022-12-08T09:16:16.765Z,2.04
2022-12-08T09:18:43.272Z,2.08
2022-12-08T09:21:13.091Z,2.14
2022-12-08T09:23:39.953Z,2.17
2022-12-08T09:26:06.713Z,2.18
2022-12-08T09:28:33.508Z,2.20
2022-12-08T09:31:01.571Z,2.20
2022-12-08T09:33:28.138Z,2.18
2022-12-08T09:35:55.009Z,2.16
2022-12-08T09:38:21.563Z,2.19
2022-12-08T09:40:53.149Z,2.21
2022-12-08T09:43:58.420Z,2.22
2022-12-08T09:46:28.073Z,2.21
2022-12-08T09:48:57.535Z,2.22
2022-12-08T09:51:34.631Z,2.22
2022-12-08T09:54:08.753Z,2.22
2022-12-08T09:56:37.582Z,2.20
2022-12-08T09:59:09.594Z,2.25
2022-12-08T10:01:41.543Z,2.27
2022-12-08T10:04:32.424Z,2.32
2022-12-08T10:07:33.775Z,2.32
2022-12-08T10:10:09.444Z,2.35
2022-12-08T10:12:57.468Z,2.37
2022-12-08T10:15:35.937Z,2.39
2022-12-08T10:18:09.886Z,2.39
2022-12-08T10:20:39.803Z,2.39
2022-12-08T10:23:19.165Z,2.39
2022-12-08T10:25:47.888Z,2.42
2022-12-08T10:28:15.247Z,2.45
2022-12-08T10:30:42.253Z,2.49
2022-12-08T10:33:17.843Z,2.51
2022-12-08T10:35:52.134Z,2.55
2022-12-08T10:38:22.619Z,2.55
2022-12-08T10:40:51.979Z,2.53
2022-12-08T10:43:23.957Z,2.51
2022-12-08T10:45:51.345Z,2.49
2022-12-08T10:48:29.081Z,2.48
2022-12-08T10:50:57.473Z,2.49
2022-12-08T10:53:26.880Z,2.51
2022-12-08T10:56:02.473Z,2.51
2022-12-08T10:58:36.371Z,2.50
2022-12-08T11:01:06.696Z,2.50
2022-12-08T11:03:37.620Z,2.48
2022-12-08T11:06:14.755Z,2.41
2022-12-08T11:08:57.168Z,2.38
2022-12-08T11:11:57.521Z,2.39
2022-12-08T11:14:32.371Z,2.40
2022-12-08T11:17:25.010Z,2.40
2022-12-08T11:20:06.528Z,2.33
2022-12-08T11:22:38.070Z,2.34
2022-12-08T11:25:07.571Z,2.37
2022-12-08T11:27:39.055Z,2.37
2022-12-08T11:30:21.311Z,2.37
2022-12-08T11:32:53.752Z,2.40
2022-12-08T11:35:29.178Z,2.39
2022-12-08T11:38:13.704Z,2.39
2022-12-08T11:40:50.222Z,2.39
2022-12-08T11:43:22.698Z,2.41
2022-12-08T11:46:19.804Z,2.43
2022-12-08T11:49:04.349Z,2.47
2022-12-08T11:51:57.339Z,2.53
2022-12-08T11:54:32.074Z,2.54
2022-12-08T11:57:03.766Z,2.60
2022-12-08T11:59:34.375Z,2.62
2022-12-08T12:02:04.280Z,2.63
2022-12-08T12:04:30.762Z,2.67
2022-12-08T12:07:12.378Z,2.69
2022-12-08T12:10:16.766Z,2.71
2022-12-08T12:13:09.746Z,2.76
2022-12-08T12:16:10.239Z,2.78
2022-12-08T12:18:46.381Z,2.82
2022-12-08T12:21:21.539Z,2.86
2022-12-08T12:23:57.722Z,2.87
2022-12-08T12:26:31.074Z,2.93
2022-12-08T12:29:06.758Z,2.91
2022-12-08T12:31:37.038Z,2.95
2022-12-08T12:34:11.761Z,2.94
2022-12-08T12:36:51.968Z,2.95
2022-12-08T12:39:21.614Z,2.91
2022-12-08T12:41:54.084Z,2.85
2022-12-08T12:44:22.654Z,2.88
2022-12-08T12:46:53.147Z,2.85
2022-12-08T12:49:37.974Z,2.82
2022-12-08T12:52:10.541Z,2.77
2022-12-08T12:54:42.651Z,2.81
2022-12-08T12:57:09.174Z,2.84
2022-12-08T12:59:51.618Z,2.84
2022-12-08T13:02:39.866Z,2.86
2022-12-08T13:05:20.947Z,2.93
2022-12-08T13:08:00.746Z,2.95
2022-12-08T13:10:38.593Z,2.98
2022-12-08T13:13:12.545Z,2.97
2022-12-08T13:15:53.248Z,2.97
2022-12-08T13:18:23.939Z,2.99
2022-12-08T13:20:54.930Z,2.98
2022-12-08T13:23:36.768Z,2.95
2022-12-08T13:26:09.513Z,3.03
2022-12-08T13:28:58.526Z,3.08
2022-12-08T13:31:50.643Z,3.09
2022-12-08T13:34:41.534Z,3.02
2022-12-08T13:37:10.955Z,2.97
2022-12-08T13:39:40.403Z,2.95
2022-12-08T13:42:12.922Z,2.93
2022-12-08T13:45:19.720Z,2.86
2022-12-08T13:48:21.494Z,2.86
2022-12-08T13:52:37.020Z,2.85
2022-12-08T13:54:09.841Z,2.84
2022-12-08T13:59:33.485Z,2.88
2022-12-08T14:02:36.302Z,2.90
2022-12-08T14:05:40.645Z,2.92
2022-12-08T14:07:55.711Z,2.92
2022-12-08T14:10:28.207Z,2.96
2022-12-08T14:12:59.217Z,2.92
2022-12-08T14:15:26.685Z,2.88
2022-12-08T14:17:57.239Z,2.87
2022-12-08T14:20:27.513Z,2.86
2022-12-08T14:22:54.333Z,2.84
2022-12-08T14:25:21.936Z,2.82
2022-12-08T14:27:49.154Z,2.79
2022-12-08T14:30:24.338Z,2.77
2022-12-08T14:32:53.977Z,2.74
2022-12-08T14:35:28.307Z,2.75
2022-12-08T14:37:58.649Z,2.71
2022-12-08T14:40:35.100Z,2.71
2022-12-08T14:43:07.560Z,2.73
2022-12-08T14:45:40.151Z,2.72
2022-12-08T14:48:30.986Z,2.68
2022-12-08T14:51:03.670Z,2.68
2022-12-08T14:53:39.609Z,2.65
2022-12-08T14:56:20.572Z,2.66
2022-12-08T14:59:05.338Z,2.64
2022-12-08T15:01:33.220Z,2.63
2022-12-08T15:04:18.051Z,2.61
2022-12-08T15:06:59.651Z,2.61
2022-12-08T15:09:30.856Z,2.60
2022-12-08T15:12:26.159Z,2.59
2022-12-08T15:15:02.437Z,2.60
2022-12-08T15:17:31.551Z,2.58
2022-12-08T15:19:59.948Z,2.55
2022-12-08T15:22:27.345Z,2.54
2022-12-08T15:24:54.225Z,2.53
2022-12-08T15:27:23.618Z,2.54
2022-12-08T15:29:50.474Z,2.55
2022-12-08T15:32:21.942Z,2.51
2022-12-08T15:34:48.602Z,2.47
2022-12-08T15:37:26.499Z,2.47
2022-12-08T15:39:53.312Z,2.47
2022-12-08T15:42:19.881Z,2.50
2022-12-08T15:44:46.469Z,2.54
2022-12-08T15:47:18.026Z,2.52
2022-12-08T15:49:45.252Z,2.51
2022-12-08T15:52:17.740Z,2.49
2022-12-08T15:54:44.279Z,2.50
2022-12-08T16:00:51.139Z,2.47
2022-12-08T16:04:13.920Z,2.49
2022-12-08T16:09:13.733Z,2.43
2022-12-08T16:12:08.766Z,2.40
2022-12-08T16:17:23.368Z,2.33
2022-12-08T16:19:49.869Z,2.31
2022-12-08T16:25:18.857Z,2.30
2022-12-08T16:30:34.267Z,2.24
2022-12-08T16:33:00.909Z,2.20
2022-12-08T16:35:27.551Z,2.16
2022-12-08T16:37:54.184Z,2.11
2022-12-08T16:40:20.955Z,2.10
2022-12-08T16:42:49.737Z,2.07
2022-12-08T16:45:17.503Z,2.07
2022-12-08T16:47:58.798Z,2.09
2022-12-08T16:50:30.387Z,2.13
2022-12-08T16:53:08.933Z,2.13
2022-12-08T16:55:35.540Z,2.19
2022-12-08T16:58:02.696Z,2.18
2022-12-08T17:00:30.935Z,2.16
2022-12-08T17:02:58.829Z,2.12
2022-12-08T17:05:25.841Z,2.07
2022-12-08T17:07:53.298Z,2.03
2022-12-08T17:10:29.048Z,2.04
2022-12-08T17:12:56.270Z,2.04
2022-12-08T17:15:25.732Z,2.07
2022-12-08T17:17:52.782Z,2.06
2022-12-08T17:20:22.246Z,2.06
2022-12-08T17:22:48.876Z,2.08
2022-12-08T17:25:15.604Z,2.03
2022-12-08T17:27:42.736Z,1.96
2022-12-08T17:30:11.669Z,1.88
2022-12-08T17:32:38.902Z,1.82
2022-12-08T17:35:06.113Z,1.76
2022-12-08T17:37:32.879Z,1.73
2022-12-08T17:39:59.394Z,1.67
2022-12-08T17:42:27.140Z,1.66
2022-12-08T17:44:54.613Z,1.62
2022-12-08T17:47:21.726Z,1.56
2022-12-08T17:49:48.750Z,1.53
2022-12-08T17:52:15.284Z,1.56
2022-12-08T17:54:41.794Z,1.56
2022-12-08T17:57:08.212Z,1.52
2022-12-08T17:59:35.028Z,1.54
2022-12-08T18:02:01.614Z,1.55
2022-12-08T18:04:28.786Z,1.56
2022-12-08T18:06:55.344Z,1.56
2022-12-08T18:09:21.880Z,1.53
2022-12-08T18:11:48.751Z,1.48
2022-12-08T18:14:15.975Z,1.46
2022-12-08T18:16:45.233Z,1.44
2022-12-08T18:19:12.819Z,1.43
2022-12-08T18:21:40.293Z,1.43
2022-12-08T18:24:08.253Z,1.47
2022-12-08T18:26:35.399Z,1.49
2022-12-08T18:29:01.914Z,1.54
2022-12-08T18:31:28.532Z,1.54
2022-12-08T18:33:55.195Z,1.52
2022-12-08T18:36:24.809Z,1.47
2022-12-08T18:38:52.611Z,1.41
2022-12-08T18:41:25.899Z,1.37
2022-12-08T18:43:54.618Z,1.35
2022-12-08T18:46:21.644Z,1.32
2022-12-08T18:48:49.914Z,1.26
2022-12-08T18:51:23.630Z,1.22
2022-12-08T18:53:51.295Z,1.11
2022-12-08T18:56:32.837Z,1.07
2022-12-08T18:59:03.878Z,1.09
2022-12-08T19:01:32.710Z,1.14
2022-12-08T19:06:47.014Z,1.24
2022-12-08T19:09:14.097Z,1.26
2022-12-08T19:11:41.452Z,1.30
2022-12-08T19:14:08.811Z,1.31
2022-12-08T19:16:36.380Z,1.34
2022-12-08T19:19:03.846Z,1.39
2022-12-08T19:21:30.409Z,1.41
2022-12-08T19:23:58.398Z,1.39
2022-12-08T19:26:25.950Z,1.39
2022-12-08T19:28:52.473Z,1.37
2022-12-08T19:31:19.035Z,1.38
2022-12-08T19:33:45.648Z,1.40
2022-12-08T19:36:15.339Z,1.40
2022-12-08T19:39:00.635Z,1.42
2022-12-08T19:41:45.741Z,1.47
2022-12-08T19:44:42.034Z,1.47
2022-12-08T19:47:09.211Z,1.47
2022-12-08T19:49:35.848Z,1.48
2022-12-08T19:52:02.527Z,1.49
2022-12-08T19:54:28.970Z,1.50
2022-12-08T19:56:55.769Z,1.51
2022-12-08T19:59:26.146Z,1.52
2022-12-08T20:01:55.579Z,1.54
2022-12-08T20:04:23.855Z,1.58
2022-12-08T20:06:51.414Z,1.56
2022-12-08T20:09:18.198Z,1.53
2022-12-08T20:11:44.613Z,1.53
2022-12-08T20:14:11.035Z,1.57
2022-12-08T20:16:37.811Z,1.58
2022-12-08T20:19:04.482Z,1.60
2022-12-08T20:21:30.951Z,1.62
2022-12-08T20:23:57.426Z,1.64
2022-12-08T20:26:24.566Z,1.64
2022-12-08T20:28:51.457Z,1.65
2022-12-08T20:31:27.840Z,1.66
2022-12-08T20:33:54.555Z,1.68
2022-12-08T20:36:22.174Z,1.71
2022-12-08T20:38:51.093Z,1.72
2022-12-08T20:41:18.848Z,1.70
2022-12-08T20:43:47.161Z,1.70
2022-12-08T20:46:16.783Z,1.68
2022-12-08T20:48:44.220Z,1.69
2022-12-08T20:51:17.086Z,1.70
2022-12-08T20:53:44.059Z,1.72
2022-12-08T20:56:18.653Z,1.72
2022-12-08T20:58:46.068Z,1.70
2022-12-08T21:01:15.145Z,1.71
2022-12-08T21:03:42.834Z,1.74
2022-12-08T21:06:09.883Z,1.75
2022-12-08T21:08:37.598Z,1.76
2022-12-08T21:11:05.067Z,1.76
2022-12-08T21:13:32.053Z,1.79
2022-12-08T21:15:58.557Z,1.76
2022-12-08T21:18:25.711Z,1.76
2022-12-08T21:20:53.152Z,1.76
2022-12-08T21:23:19.831Z,1.76
2022-12-08T21:25:47.386Z,1.79
2022-12-08T21:28:14.526Z,1.79
2022-12-08T21:30:42.752Z,1.79
2022-12-08T21:33:09.820Z,1.79
2022-12-08T21:35:36.738Z,1.80
2022-12-08T21:38:05.819Z,1.82
2022-12-08T21:40:36.635Z,1.83
2022-12-08T21:43:03.850Z,1.84
2022-12-08T21:45:30.787Z,1.85
2022-12-08T21:47:59.146Z,1.88
2022-12-08T21:50:26.057Z,1.90
2022-12-08T21:52:52.623Z,1.93
2022-12-08T21:55:20.185Z,1.93
2022-12-08T21:57:47.381Z,1.90
2022-12-08T22:00:16.170Z,1.93
2022-12-08T22:02:43.385Z,1.91
2022-12-08T22:05:10.194Z,1.94
2022-12-08T22:07:40.817Z,1.96
2022-12-08T22:10:09.372Z,1.98
2022-12-08T22:12:37.501Z,2.00
2022-12-08T22:15:08.441Z,2.02
2022-12-08T22:17:40.009Z,2.03
2022-12-08T22:20:08.662Z,1.99
2022-12-08T22:22:35.779Z,2.01
2022-12-08T22:25:03.914Z,2.03
2022-12-08T22:27:30.520Z,2.03
2022-12-08T22:29:57.132Z,2.03
2022-12-08T22:32:23.645Z,2.04
2022-12-08T22:34:50.368Z,2.04
2022-12-08T22:37:16.848Z,2.06
2022-12-08T22:39:43.253Z,2.04
2022-12-08T22:42:09.686Z,2.02
2022-12-08T22:44:36.604Z,1.98
2022-12-08T22:47:03.085Z,1.96
2022-12-08T22:49:30.037Z,1.93
2022-12-08T22:51:56.673Z,1.92
2022-12-08T22:54:23.192Z,1.90
2022-12-08T22:56:49.857Z,1.86
2022-12-08T22:59:16.363Z,1.85
2022-12-08T23:01:42.886Z,1.81
2022-12-08T23:04:17.247Z,1.79
2022-12-08T23:06:44.773Z,1.71
2022-12-08T23:09:11.603Z,1.70
2022-12-08T23:11:38.121Z,1.67
2022-12-08T23:14:04.822Z,1.64
2022-12-08T23:16:31.524Z,1.64
2022-12-08T23:18:58.811Z,1.62
2022-12-08T23:21:25.403Z,1.61
2022-12-08T23:23:51.968Z,1.60
2022-12-08T23:26:25.730Z,1.59
2022-12-08T23:28:52.796Z,1.61
2022-12-08T23:31:20.160Z,1.62
2022-12-08T23:33:47.198Z,1.64
2022-12-08T23:36:16.021Z,1.67
2022-12-08T23:38:42.863Z,1.67
2022-12-08T23:41:11.834Z,1.70
2022-12-08T23:43:46.391Z,1.70
2022-12-08T23:46:14.444Z,1.75
2022-12-08T23:48:41.231Z,1.76
2022-12-08T23:51:07.952Z,1.74
2022-12-08T23:53:34.793Z,1.77
2022-12-08T23:56:07.048Z,1.76
2022-12-08T23:58:34.782Z,1.78
